Time;durP1;ratioP1;P1;durP2;ratioP2;P2;SDS_P1;SDS_P2;PMS_P1;PMS_P2;Temp;Humidity;BMP_temperature;BMP_pressure;BME280_temperature;BME280_humidity;BME280_pressure;Samples;Min_cycle;Max_cycle;Signal;HPM_P1;HPM_P2
2023/10/05 00:01:12;;;;;;;10.05;3.50;;;;;;;12.68;95.09;102050.50;5071732;28;20027;-73
2023/10/05 00:03:38;;;;;;;7.28;3.33;;;;;;;12.54;95.53;102058.34;5072006;28;20445;-72
2023/10/05 00:06:16;;;;;;;8.30;3.13;;;;;;;12.58;95.34;102054.28;5073753;28;20029;-73
2023/10/05 00:08:47;;;;;;;7.50;2.90;;;;;;;12.67;95.09;102056.94;5072632;28;20028;-73
2023/10/05 00:11:29;;;;;;;7.78;3.08;;;;;;;12.68;95.02;102054.03;5072715;28;20021;-73
2023/10/05 00:14:17;;;;;;;10.00;2.83;;;;;;;12.63;94.89;102064.53;5074385;28;20017;-73
2023/10/05 00:16:47;;;;;;;12.07;3.17;;;;;;;12.48;95.74;102056.41;5071621;28;20074;-73
2023/10/05 00:19:13;;;;;;;6.38;3.15;;;;;;;12.44;96.21;102058.59;5072345;28;20485;-72
2023/10/05 00:21:47;;;;;;;5.68;3.00;;;;;;;12.53;96.33;102064.78;5073915;28;20035;-73
2023/10/05 00:24:14;;;;;;;7.25;2.95;;;;;;;12.50;96.13;102062.47;5072780;28;20068;-73
2023/10/05 00:26:43;;;;;;;7.45;3.08;;;;;;;12.46;96.14;102057.56;5070511;28;20365;-73
2023/10/05 00:29:18;;;;;;;5.75;2.72;;;;;;;12.51;96.19;102056.03;5073581;28;20396;-73
2023/10/05 00:31:44;;;;;;;6.35;2.75;;;;;;;12.54;95.87;102055.66;5070335;28;20107;-73
2023/10/05 00:34:12;;;;;;;10.25;2.92;;;;;;;12.58;95.76;102059.69;5071737;28;20107;-73
2023/10/05 00:36:40;;;;;;;8.57;2.50;;;;;;;12.51;96.09;102058.75;5071674;28;20040;-73
2023/10/05 00:39:10;;;;;;;9.07;2.80;;;;;;;12.48;96.15;102059.09;5071148;28;20036;-73
2023/10/05 00:41:36;;;;;;;7.60;2.97;;;;;;;12.51;96.29;102057.88;5071966;28;20055;-73
2023/10/05 00:44:04;;;;;;;8.00;2.92;;;;;;;12.57;96.18;102058.00;5071524;28;20051;-73
2023/10/05 00:46:32;;;;;;;8.98;3.10;;;;;;;12.60;95.86;102056.81;5070486;28;20380;-73
2023/10/05 00:49:13;;;;;;;6.25;2.70;;;;;;;12.62;95.70;102059.31;5072680;28;20031;-73
2023/10/05 00:51:40;;;;;;;7.68;2.95;;;;;;;12.62;95.89;102052.03;5053155;28;20037;-72
2023/10/05 00:54:11;;;;;;;8.98;2.80;;;;;;;12.63;95.86;102056.44;5073622;28;20036;-73
2023/10/05 00:56:41;;;;;;;6.28;2.58;;;;;;;12.54;96.48;102058.34;5073475;28;20058;-73
2023/10/05 00:59:09;;;;;;;5.97;2.53;;;;;;;12.53;96.59;102050.44;5073140;28;20380;-73
2023/10/05 01:04:24;;;;;;;5.75;2.47;;;;;;;12.54;96.27;102058.34;5073129;28;20425;-73
2023/10/05 01:07:00;;;;;;;8.95;2.67;;;;;;;12.63;96.36;102061.00;5071114;28;20036;-73
2023/10/05 01:14:46;;;;;;;6.70;2.60;;;;;;;12.63;96.38;102047.50;5071646;28;20058;-73
2023/10/05 01:17:13;;;;;;;6.93;2.88;;;;;;;12.68;95.82;102047.81;5073146;28;20122;-74
2023/10/05 01:19:39;;;;;;;9.35;2.80;;;;;;;12.63;95.76;102050.19;5068819;28;20028;-72
2023/10/05 01:22:11;;;;;;;5.18;2.33;;;;;;;12.66;96.04;102055.25;5070087;28;20093;-73
2023/10/05 01:24:37;;;;;;;4.82;2.42;;;;;;;12.69;95.99;102052.19;5071275;28;20025;-73
2023/10/05 01:27:03;;;;;;;8.00;3.00;;;;;;;12.71;95.99;102050.13;5071140;28;20021;-73
2023/10/05 01:29:29;;;;;;;7.85;2.55;;;;;;;12.57;97.11;102054.47;5070548;28;20484;-74
2023/10/05 01:31:55;;;;;;;6.20;3.25;;;;;;;12.61;97.77;102052.25;5060058;28;20039;-74
2023/10/05 01:34:20;;;;;;;5.78;2.47;;;;;;;12.52;98.46;102044.22;5070929;28;20457;-74
2023/10/05 01:36:46;;;;;;;12.93;2.85;;;;;;;12.55;98.45;102049.22;5072191;28;20021;-74
2023/10/05 01:39:12;;;;;;;6.28;2.50;;;;;;;12.59;97.83;102050.56;5068657;28;20051;-74
2023/10/05 01:41:38;;;;;;;6.22;2.60;;;;;;;12.65;97.69;102053.56;5065261;28;20037;-74
2023/10/05 01:44:04;;;;;;;7.28;2.47;;;;;;;12.65;97.20;102053.56;5069110;28;20049;-73
2023/10/05 01:46:32;;;;;;;6.60;2.72;;;;;;;12.59;97.38;102049.72;5069545;28;20033;-72
2023/10/05 01:48:57;;;;;;;5.55;2.45;;;;;;;12.59;97.20;102060.53;5068721;28;20384;-73
2023/10/05 01:51:26;;;;;;;5.22;2.22;;;;;;;12.52;97.62;102052.31;5070266;28;20033;-74
2023/10/05 01:53:52;;;;;;;10.27;2.78;;;;;;;12.54;97.66;102055.66;5071472;28;20538;-73
2023/10/05 01:56:20;;;;;;;7.50;2.58;;;;;;;12.59;97.41;102055.97;5071397;28;20046;-73
2023/10/05 01:58:50;;;;;;;7.88;2.72;;;;;;;12.55;97.10;102053.81;5069737;28;20032;-74
2023/10/05 02:01:16;;;;;;;7.90;2.58;;;;;;;12.61;97.18;102054.94;5070531;28;20028;-73
2023/10/05 02:03:42;;;;;;;5.55;2.53;;;;;;;12.58;96.87;102048.88;5072859;28;20074;-73
2023/10/05 02:06:11;;;;;;;7.40;2.58;;;;;;;12.64;96.50;102043.78;5073732;28;20032;-72
2023/10/05 02:08:37;;;;;;;7.22;2.50;;;;;;;12.64;96.67;102035.69;5071986;28;20059;-74
2023/10/05 02:11:04;;;;;;;8.95;2.60;;;;;;;12.65;96.63;102037.34;5062956;28;20461;-73
2023/10/05 02:13:31;;;;;;;6.40;2.50;;;;;;;12.63;96.76;102029.41;5069812;28;20399;-73
2023/10/05 02:15:59;;;;;;;9.23;2.65;;;;;;;12.69;96.74;102033.28;5070468;28;20025;-72
2023/10/05 02:18:24;;;;;;;8.32;2.72;;;;;;;12.65;96.49;102030.06;5070363;28;20024;-74
2023/10/05 02:21:01;;;;;;;8.30;2.45;;;;;;;12.70;96.62;102032.25;5066982;28;20066;-73
2023/10/05 02:23:28;;;;;;;;;;;;;;;12.57;96.85;102031.00;5070906;28;20155;-74
2023/10/05 02:26:10;;;;;;;11.82;2.72;;;;;;;12.52;97.26;102028.00;5069747;28;19920;-73
2023/10/05 02:28:41;;;;;;;7.03;2.47;;;;;;;12.62;97.05;102022.34;5064060;28;20029;-73
2023/10/05 02:31:13;;;;;;;7.18;2.80;;;;;;;12.65;96.30;102016.56;5070309;28;20028;-73
2023/10/05 02:33:40;;;;;;;8.27;2.60;;;;;;;12.66;96.15;102018.25;5072508;28;20029;-73
2023/10/05 02:36:14;;;;;;;6.68;2.58;;;;;;;12.56;96.33;102014.97;5069073;28;20075;-73
2023/10/05 02:38:47;;;;;;;6.00;2.60;;;;;;;12.45;96.78;102027.03;5057583;28;20100;-73
2023/10/05 02:41:13;;;;;;;8.07;2.65;;;;;;;12.50;96.49;102019.25;5065257;28;20032;-75
2023/10/05 02:43:39;;;;;;;5.88;2.55;;;;;;;12.35;97.47;102016.47;5052612;28;20051;-73
2023/10/05 02:46:11;;;;;;;6.00;2.60;;;;;;;12.30;97.86;102007.25;5071333;28;20055;-73
2023/10/05 02:48:39;;;;;;;7.93;2.60;;;;;;;12.30;97.82;102015.34;5076277;28;20801;-72
2023/10/05 02:51:05;;;;;;;9.38;2.92;;;;;;;12.11;98.47;102014.78;5070838;28;20404;-74
2023/10/05 02:53:55;;;;;;;9.95;3.03;;;;;;;12.10;98.92;102013.94;5071453;28;20117;-73
2023/10/05 02:56:26;;;;;;;7.93;2.63;;;;;;;12.18;98.92;102014.91;5070133;28;20040;-73
2023/10/05 02:58:54;;;;;;;6.68;2.92;;;;;;;12.04;99.02;102013.81;5073491;28;20036;-74
2023/10/05 03:01:21;;;;;;;9.13;3.20;;;;;;;12.10;99.03;102013.09;5077760;28;20035;-73
2023/10/05 03:03:47;;;;;;;6.20;3.00;;;;;;;12.00;99.07;102017.91;5083568;28;20525;-73
2023/10/05 03:06:15;;;;;;;6.38;2.70;;;;;;;11.85;100.00;102015.91;5073859;28;20031;-73
2023/10/05 03:08:40;;;;;;;11.70;3.05;;;;;;;11.93;100.00;102018.56;5074257;28;20089;-75
2023/10/05 03:11:08;;;;;;;7.43;2.70;;;;;;;11.83;100.00;102017.94;5075392;28;20652;-73
2023/10/05 03:13:38;;;;;;;7.47;2.83;;;;;;;11.81;100.00;102017.31;5072530;28;20512;-73
2023/10/05 03:16:10;;;;;;;9.32;2.95;;;;;;;11.86;100.00;102022.97;5075333;28;20032;-73
2023/10/05 03:18:42;;;;;;;8.45;2.70;;;;;;;11.77;100.00;102024.06;5076606;28;20025;-73
2023/10/05 03:21:13;;;;;;;8.57;3.15;;;;;;;11.80;100.00;102029.09;5076628;28;20039;-73
2023/10/05 03:23:41;;;;;;;7.75;2.83;;;;;;;11.65;100.00;102024.44;5076967;28;20082;-73
2023/10/05 03:26:11;;;;;;;7.22;2.63;;;;;;;11.71;100.00;102016.66;5076029;28;20035;-73
2023/10/05 03:28:37;;;;;;;6.53;2.95;;;;;;;11.74;100.00;102013.63;5076319;28;20375;-73
2023/10/05 03:31:06;;;;;;;8.70;3.10;;;;;;;11.67;100.00;102008.91;5073409;28;20029;-73
2023/10/05 03:33:34;;;;;;;8.10;3.03;;;;;;;11.70;100.00;102009.56;5074599;28;20025;-73
2023/10/05 03:36:06;;;;;;;9.45;3.08;;;;;;;11.63;100.00;102014.84;5075228;28;20028;-73
2023/10/05 03:38:31;;;;;;;7.07;3.17;;;;;;;11.60;100.00;102013.34;5074864;28;20048;-73
2023/10/05 03:41:01;;;;;;;7.85;2.78;;;;;;;11.57;100.00;102016.38;5074959;28;20082;-73
2023/10/05 03:43:27;;;;;;;7.80;3.25;;;;;;;11.52;100.00;102018.75;5077402;28;20071;-73
2023/10/05 03:45:52;;;;;;;5.22;3.03;;;;;;;11.62;100.00;102014.00;5074606;28;20472;-74
2023/10/05 03:48:18;;;;;;;9.63;2.95;;;;;;;11.61;100.00;102015.03;5055023;28;20032;-73
2023/10/05 03:50:43;;;;;;;5.15;3.05;;;;;;;11.54;100.00;102016.72;5074372;28;20035;-73
2023/10/05 03:53:15;;;;;;;7.78;3.92;;;;;;;11.55;100.00;102014.88;5075553;28;20542;-74
2023/10/05 03:55:41;;;;;;;8.13;3.35;;;;;;;11.58;100.00;102011.81;5078052;28;20024;-73
2023/10/05 03:58:07;;;;;;;7.25;2.85;;;;;;;11.60;100.00;102017.88;5077048;28;20096;-74
2023/10/05 04:00:35;;;;;;;8.13;3.10;;;;;;;11.59;100.00;102016.19;5250909;22;20488;-74
2023/10/05 04:03:02;;;;;;;8.82;3.42;;;;;;;11.56;100.00;102016.56;5073331;28;20032;-74
2023/10/05 04:05:27;;;;;;;7.07;3.28;;;;;;;11.49;100.00;102022.66;5075719;28;20028;-74
2023/10/05 04:07:54;;;;;;;7.30;2.97;;;;;;;11.51;100.00;102023.31;5070687;28;20464;-73
2023/10/05 04:10:23;;;;;;;12.38;3.72;;;;;;;11.48;100.00;102028.19;5072290;28;20027;-74
2023/10/05 04:12:49;;;;;;;8.48;3.15;;;;;;;11.46;100.00;102030.25;5073677;28;20127;-73
2023/10/05 04:15:18;;;;;;;7.10;3.30;;;;;;;11.46;100.00;102030.25;5072357;28;20033;-73
2023/10/05 04:17:49;;;;;;;6.65;3.25;;;;;;;11.43;100.00;102034.13;5072152;28;20499;-74
2023/10/05 04:20:48;;;;;;;5.47;3.20;;;;;;;11.43;100.00;102027.91;5073240;28;20039;-74
2023/10/05 04:23:07;;;;;;;8.48;3.22;;;;;;;11.38;100.00;102025.75;5068715;28;20123;-73
2023/10/05 04:25:32;;;;;;;7.63;3.40;;;;;;;11.30;100.00;102034.66;5073884;28;20354;-73
2023/10/05 04:28:00;;;;;;;8.75;3.50;;;;;;;11.43;100.00;102033.28;5071776;28;20388;-74
2023/10/05 04:30:27;;;;;;;9.32;3.13;;;;;;;11.49;100.00;102040.66;5071710;28;20572;-73
2023/10/05 04:32:52;;;;;;;8.15;3.40;;;;;;;11.54;100.00;102035.59;5072464;28;20024;-73
2023/10/05 04:35:22;;;;;;;9.82;3.28;;;;;;;11.61;100.00;102035.75;5073326;28;20512;-74
2023/10/05 04:37:49;;;;;;;9.07;3.42;;;;;;;11.59;100.00;102044.03;5071759;28;20086;-73
2023/10/05 04:40:17;;;;;;;5.25;3.10;;;;;;;11.63;100.00;102041.81;5071708;28;20025;-74
2023/10/05 04:42:42;;;;;;;10.05;3.60;;;;;;;11.65;100.00;102032.53;5072483;28;20031;-73
2023/10/05 04:45:12;;;;;;;8.85;3.20;;;;;;;11.61;100.00;102031.22;5072556;28;20021;-73
2023/10/05 04:47:38;;;;;;;7.07;2.88;;;;;;;11.62;100.00;102032.91;5072501;28;20036;-73
2023/10/05 04:50:05;;;;;;;7.00;3.33;;;;;;;11.55;100.00;102021.09;5072043;28;20106;-73
2023/10/05 04:52:33;;;;;;;7.55;3.30;;;;;;;11.59;100.00;102027.00;5072232;28;20031;-73
2023/10/05 04:55:14;;;;;;;7.35;3.40;;;;;;;11.58;100.00;102026.16;5072636;28;20115;-73
2023/10/05 04:57:49;;;;;;;6.60;3.47;;;;;;;11.54;100.00;102035.59;5070707;28;20483;-74
2023/10/05 05:03:17;;;;;;;11.88;4.10;;;;;;;11.45;100.00;102034.78;5073022;28;20692;-73
2023/10/05 05:06:10;;;;;;;12.20;3.53;;;;;;;11.29;100.00;102030.31;5072429;28;20032;-73
2023/10/05 05:08:38;;;;;;;9.10;3.10;;;;;;;11.33;100.00;102028.94;5071987;28;20056;-73
2023/10/05 05:11:08;;;;;;;9.85;3.35;;;;;;;11.27;100.00;102035.03;5073448;28;20028;-74
2023/10/05 05:13:34;;;;;;;7.55;3.30;;;;;;;11.30;100.00;102031.97;5072913;28;20039;-73
2023/10/05 05:16:00;;;;;;;8.98;3.50;;;;;;;11.29;100.00;102033.00;5072723;28;20077;-74
2023/10/05 05:18:25;;;;;;;8.77;3.50;;;;;;;11.27;100.00;102035.03;5071802;28;20058;-74
2023/10/05 05:20:53;;;;;;;7.10;3.45;;;;;;;11.20;100.00;102036.72;5070841;28;20065;-73
2023/10/05 05:23:19;;;;;;;10.98;3.47;;;;;;;11.24;100.00;102046.16;5071716;28;20049;-74
2023/10/05 05:25:48;;;;;;;10.05;3.33;;;;;;;11.23;100.00;102036.38;5072304;28;20456;-74
2023/10/05 05:28:15;;;;;;;7.35;3.42;;;;;;;11.21;100.00;102046.50;5071850;28;20033;-73
2023/10/05 05:30:40;;;;;;;9.68;3.78;;;;;;;11.27;100.00;102035.03;5071308;28;20384;-74
2023/10/05 05:33:10;;;;;;;8.43;3.45;;;;;;;11.27;100.00;102037.72;5070520;28;20021;-74
2023/10/05 05:35:36;;;;;;;7.82;3.45;;;;;;;11.25;100.00;102038.88;5072961;28;20021;-74
2023/10/05 05:38:02;;;;;;;11.20;3.78;;;;;;;11.19;100.00;102035.03;5071762;28;20024;-74
2023/10/05 05:40:29;;;;;;;8.20;3.20;;;;;;;11.19;100.00;102043.13;5072043;28;20031;-74
2023/10/05 05:42:56;;;;;;;7.32;3.55;;;;;;;11.20;100.00;102050.19;5072537;28;20063;-74
2023/10/05 05:45:21;;;;;;;10.45;3.83;;;;;;;11.16;100.00;102043.47;5066563;28;20021;-74
2023/10/05 05:47:47;;;;;;;7.65;3.38;;;;;;;11.10;100.00;102057.63;5065229;28;20558;-74
2023/10/05 05:50:23;;;;;;;8.70;3.30;;;;;;;10.96;100.00;102051.91;5068568;28;20464;-74
2023/10/05 05:52:53;;;;;;;9.18;3.40;;;;;;;11.05;100.00;102045.50;5064010;28;20119;-74
2023/10/05 05:55:21;;;;;;;7.85;3.45;;;;;;;11.14;100.00;102056.25;5067115;28;20020;-74
2023/10/05 05:57:47;;;;;;;7.90;3.45;;;;;;;11.16;100.00;102062.31;5069748;28;20063;-74
2023/10/05 06:00:13;;;;;;;6.80;3.22;;;;;;;11.18;100.00;102053.06;5069042;28;20044;-75
2023/10/05 06:02:41;;;;;;;7.18;3.60;;;;;;;11.21;100.00;102068.06;5070152;28;20052;-75
2023/10/05 06:05:09;;;;;;;10.93;3.22;;;;;;;11.38;100.00;102066.19;5071023;28;20024;-75
2023/10/05 06:07:39;;;;;;;8.00;3.17;;;;;;;11.47;100.00;102059.72;5068408;28;20043;-75
2023/10/05 06:10:12;;;;;;;6.47;3.30;;;;;;;11.56;100.00;102060.56;5064618;28;20099;-75
2023/10/05 06:12:48;;;;;;;6.22;2.90;;;;;;;11.63;100.00;102075.03;5068876;28;20025;-75
2023/10/05 06:15:13;;;;;;;10.00;3.33;;;;;;;11.71;100.00;102076.84;5069424;28;20062;-76
2023/10/05 06:17:39;;;;;;;5.03;3.17;;;;;;;11.84;100.00;102089.78;5068122;28;20025;-73
2023/10/05 06:20:15;;;;;;;5.68;3.03;;;;;;;11.91;100.00;102079.97;5070534;28;20112;-74
2023/10/05 06:22:42;;;;;;;9.10;3.30;;;;;;;12.10;100.00;102086.00;5066609;28;20032;-73
2023/10/05 06:25:09;;;;;;;10.00;2.90;;;;;;;12.17;100.00;102084.28;5070128;28;20070;-74
2023/10/05 06:27:36;;;;;;;7.25;3.35;;;;;;;12.15;100.00;102089.00;5069342;28;20052;-74
2023/10/05 06:30:05;;;;;;;7.57;3.50;;;;;;;12.26;100.00;102087.78;5070863;28;20025;-73
2023/10/05 06:32:31;;;;;;;11.68;3.67;;;;;;;12.32;99.73;102091.63;5071419;28;20025;-74
2023/10/05 06:34:57;;;;;;;7.03;3.05;;;;;;;12.32;100.00;102086.22;5075252;28;20060;-73
2023/10/05 06:37:25;;;;;;;7.70;3.35;;;;;;;12.35;99.93;102093.97;5074349;28;20472;-74
2023/10/05 06:39:53;;;;;;;8.93;3.53;;;;;;;12.47;99.17;102088.97;5088569;28;20020;-74
2023/10/05 06:42:18;;;;;;;7.97;3.35;;;;;;;12.50;98.79;102084.06;5081188;28;20017;-74
2023/10/05 06:44:44;;;;;;;7.55;3.28;;;;;;;12.38;99.45;102085.47;5075361;28;20043;-74
2023/10/05 06:47:18;;;;;;;6.35;3.33;;;;;;;12.53;98.37;102088.25;5074147;28;20054;-75
2023/10/05 06:49:44;;;;;;;7.28;3.30;;;;;;;12.59;98.26;102077.56;5074899;28;20056;-74
2023/10/05 06:52:09;;;;;;;7.25;3.08;;;;;;;12.63;97.99;102090.72;5074499;28;20048;-74
2023/10/05 06:54:35;;;;;;;9.65;3.70;;;;;;;12.57;97.71;102093.13;5073006;28;20036;-74
2023/10/05 06:57:00;;;;;;;8.90;3.30;;;;;;;12.56;97.75;102085.22;5072546;28;20028;-75
2023/10/05 06:59:26;;;;;;;9.18;3.33;;;;;;;12.74;97.47;102095.69;5073614;28;20032;-73
2023/10/05 07:01:52;;;;;;;8.48;3.53;;;;;;;12.93;96.29;102101.63;5072894;28;20040;-74
2023/10/05 07:04:24;;;;;;;10.93;3.80;;;;;;;12.70;96.62;102107.91;5073578;28;20111;-73
2023/10/05 07:06:50;;;;;;;8.73;3.63;;;;;;;12.93;96.03;102109.75;5054688;28;20029;-74
2023/10/05 07:09:15;;;;;;;10.00;3.42;;;;;;;13.13;94.59;102116.31;5075344;28;20320;-74
2023/10/05 07:11:41;;;;;;;7.10;2.92;;;;;;;13.28;93.57;102115.50;5082039;28;20026;-73
2023/10/05 07:14:10;;;;;;;8.48;3.65;;;;;;;13.31;93.51;102112.44;5080039;28;20446;-74
2023/10/05 07:16:35;;;;;;;7.03;3.47;;;;;;;13.43;92.39;102107.47;5081672;22;20052;-74
2023/10/05 07:19:00;;;;;;;11.90;3.80;;;;;;;13.41;92.16;102113.06;5089896;28;20097;-74
2023/10/05 07:21:26;;;;;;;9.43;3.03;;;;;;;13.42;92.54;102112.00;5092845;28;20028;-74
2023/10/05 07:23:51;;;;;;;5.97;3.40;;;;;;;13.46;92.41;102116.03;5092623;28;20196;-75
2023/10/05 07:26:16;;;;;;;6.00;3.40;;;;;;;13.61;91.67;102113.34;5093540;28;20023;-74
2023/10/05 07:28:42;;;;;;;6.85;3.38;;;;;;;13.74;91.08;102117.25;5092497;28;20040;-75
2023/10/05 07:31:09;;;;;;;9.40;3.85;;;;;;;13.80;89.84;102114.63;5092511;28;20369;-73
2023/10/05 07:33:35;;;;;;;7.95;3.03;;;;;;;13.79;90.18;102129.19;5092203;28;20028;-76
2023/10/05 07:36:02;;;;;;;8.52;3.58;;;;;;;13.91;89.77;102139.56;5092870;28;20507;-75
2023/10/05 07:38:31;;;;;;;12.57;4.53;;;;;;;13.97;89.54;102144.22;5091453;28;20480;-74
2023/10/05 07:40:57;;;;;;;8.45;3.65;;;;;;;14.08;88.99;102141.06;5092018;28;20055;-74
2023/10/05 07:43:23;;;;;;;5.72;3.20;;;;;;;14.34;87.83;102150.53;5093549;28;20046;-74
2023/10/05 07:45:48;;;;;;;9.60;3.40;;;;;;;14.19;88.42;102147.00;5096482;28;20032;-75
2023/10/05 07:48:14;;;;;;;7.82;3.40;;;;;;;14.54;85.71;102160.75;5094709;28;20475;-75
2023/10/05 07:50:39;;;;;;;6.45;3.20;;;;;;;14.55;86.37;102168.72;5094034;28;20024;-75
2023/10/05 07:53:05;;;;;;;9.32;3.47;;;;;;;14.73;85.08;102169.31;5092541;28;20097;-75
2023/10/05 07:55:31;;;;;;;7.82;3.35;;;;;;;14.66;84.87;102159.22;5094473;28;20042;-75
2023/10/05 07:57:56;;;;;;;8.18;3.88;;;;;;;14.01;87.81;102164.47;5090861;28;20463;-76
2023/10/05 08:00:22;;;;;;;12.05;4.15;;;;;;;14.23;87.19;102167.28;5092368;28;20055;-74
2023/10/05 08:02:47;;;;;;;9.15;4.05;;;;;;;14.52;85.91;102168.22;5092628;28;20026;-73
2023/10/05 08:05:13;;;;;;;9.93;3.92;;;;;;;15.08;82.87;102162.19;5092985;28;20049;-73
2023/10/05 08:07:38;;;;;;;8.18;3.35;;;;;;;15.74;80.11;102171.84;5091708;28;20483;-72
2023/10/05 08:10:13;;;;;;;10.43;3.47;;;;;;;16.00;78.85;102178.50;5093504;28;20356;-74
2023/10/05 08:12:39;;;;;;;9.00;3.90;;;;;;;15.75;78.83;102175.41;5093225;28;20495;-73
2023/10/05 08:15:05;;;;;;;8.45;4.10;;;;;;;15.71;79.30;102191.25;5077767;28;20031;-74
2023/10/05 08:17:32;;;;;;;9.85;3.63;;;;;;;15.91;78.25;102185.16;5097945;28;20547;-74
2023/10/05 08:19:57;;;;;;;6.63;3.90;;;;;;;15.90;78.33;102188.91;5075820;28;20020;-74
2023/10/05 08:22:23;;;;;;;9.43;4.05;;;;;;;16.70;75.60;102184.81;5092060;28;20043;-74
2023/10/05 08:24:48;;;;;;;9.38;3.58;;;;;;;16.81;74.75;102186.97;5093046;28;20496;-74
2023/10/05 08:27:14;;;;;;;9.85;3.90;;;;;;;16.89;74.27;102188.66;5091442;28;20028;-74
2023/10/05 08:29:42;;;;;;;9.38;3.63;;;;;;;17.52;71.94;102187.44;5091537;28;20016;-74
2023/10/05 08:32:13;;;;;;;10.38;4.05;;;;;;;17.40;71.90;102195.41;5092978;28;20024;-74
2023/10/05 08:34:41;;;;;;;9.45;3.78;;;;;;;17.40;70.99;102188.09;5091199;28;20019;-76
2023/10/05 08:37:08;;;;;;;10.85;3.83;;;;;;;17.64;70.51;102196.66;5089281;28;20028;-74
2023/10/05 08:39:35;;;;;;;8.48;3.97;;;;;;;17.52;70.86;102191.03;5089884;28;20027;-74
2023/10/05 08:42:06;;;;;;;11.63;4.18;;;;;;;17.75;70.67;102188.88;5091860;28;20024;-74
2023/10/05 08:44:36;;;;;;;10.80;4.30;;;;;;;17.66;71.21;102191.81;5090919;28;20016;-74
2023/10/05 08:47:05;;;;;;;7.80;3.78;;;;;;;17.69;71.11;102190.56;5072813;28;20080;-74
2023/10/05 08:49:33;;;;;;;8.80;4.38;;;;;;;17.48;71.37;102188.91;5089313;28;20335;-73
2023/10/05 08:51:59;;;;;;;9.05;4.18;;;;;;;17.26;71.71;102191.88;5073363;28;20452;-74
2023/10/05 08:54:28;;;;;;;12.68;3.90;;;;;;;17.60;71.37;102194.56;5073240;28;20016;-73
2023/10/05 08:56:54;;;;;;;12.07;4.93;;;;;;;17.32;72.12;102198.34;5089064;28;20089;-74
2023/10/05 08:59:19;;;;;;;9.10;4.45;;;;;;;16.61;74.44;102195.06;5091135;28;20032;-74
2023/10/05 09:01:52;;;;;;;10.20;4.00;;;;;;;16.91;73.77;102202.88;5090860;28;20035;-74
2023/10/05 09:06:52;;;;;;;11.07;3.97;;;;;;;17.17;72.71;102198.53;5089112;28;20373;-74
2023/10/05 09:09:37;;;;;;;13.05;4.05;;;;;;;16.83;73.72;102204.75;5088815;28;20392;-74
2023/10/05 09:12:36;;;;;;;9.35;4.18;;;;;;;16.82;73.87;102213.94;5079874;28;20020;-74
2023/10/05 09:17:56;;;;;;;9.27;3.83;;;;;;;16.87;74.59;102215.22;5080291;28;20519;-74
2023/10/05 09:20:23;;;;;;;8.50;3.80;;;;;;;16.91;73.72;102213.75;5089395;28;20038;-75
2023/10/05 09:22:53;;;;;;;8.20;3.70;;;;;;;17.34;73.18;102218.03;5090677;28;20024;-75
2023/10/05 09:25:27;;;;;;;9.32;4.03;;;;;;;16.85;74.18;102222.75;5091209;28;20111;-75
2023/10/05 09:27:58;;;;;;;11.82;4.13;;;;;;;17.62;71.68;102222.41;5089962;28;20040;-75
2023/10/05 09:30:29;;;;;;;12.00;4.20;;;;;;;17.35;72.57;102228.69;5089271;28;20051;-75
2023/10/05 09:33:06;;;;;;;11.88;3.85;;;;;;;17.90;70.82;102216.72;5091116;28;20024;-74
2023/10/05 09:35:31;;;;;;;10.50;4.07;;;;;;;17.86;70.88;102237.25;5091069;28;20535;-75
2023/10/05 09:38:00;;;;;;;11.68;4.10;;;;;;;17.89;70.19;102228.66;5089402;28;20486;-74
2023/10/05 09:40:31;;;;;;;8.25;3.95;;;;;;;18.37;69.02;102237.56;5090145;28;20039;-73
2023/10/05 09:42:57;;;;;;;10.38;3.60;;;;;;;17.80;69.66;102243.56;5090906;28;20115;-73
2023/10/05 09:45:27;;;;;;;7.47;3.38;;;;;;;18.58;68.13;102242.75;5090666;28;20023;-73
2023/10/05 09:47:54;;;;;;;9.52;3.90;;;;;;;18.37;67.88;102243.88;5055488;28;20119;-73
2023/10/05 09:50:24;;;;;;;10.48;3.90;;;;;;;18.71;67.62;102249.22;5053849;28;20107;-74
2023/10/05 09:52:49;;;;;;;8.57;3.60;;;;;;;18.92;67.13;102257.03;5053205;28;20056;-74
2023/10/05 09:55:18;;;;;;;10.00;3.50;;;;;;;18.47;68.30;102257.88;5072786;28;20058;-74
2023/10/05 09:57:46;;;;;;;10.15;3.60;;;;;;;18.83;67.42;102258.38;5089355;28;20467;-74
2023/10/05 10:00:47;;;;;;;6.85;3.33;;;;;;;19.31;65.19;102264.38;5089520;28;20032;-75
2023/10/05 10:03:14;;;;;;;11.77;4.28;;;;;;;18.20;68.03;102262.56;5091226;28;20445;-77
2023/10/05 10:05:48;;;;;;;12.07;3.92;;;;;;;17.77;69.92;102252.16;5089288;28;20062;-74
2023/10/05 10:08:29;;;;;;;9.75;3.85;;;;;;;17.28;72.04;102252.38;5071041;28;20089;-75
2023/10/05 10:11:09;;;;;;;10.20;3.80;;;;;;;17.37;72.59;102253.84;5072010;28;20023;-75
2023/10/05 10:13:38;;;;;;;9.90;3.90;;;;;;;17.39;72.44;102240.84;5072328;28;20075;-75
2023/10/05 10:16:22;;;;;;;8.75;3.60;;;;;;;17.33;72.70;102244.41;5072404;28;20024;-75
2023/10/05 10:19:07;;;;;;;7.70;3.35;;;;;;;17.18;74.62;102241.88;5049810;28;20025;-74
2023/10/05 10:21:35;;;;;;;8.15;3.35;;;;;;;17.37;72.86;102240.22;5047678;28;20483;-75
2023/10/05 10:24:15;;;;;;;12.52;3.80;;;;;;;17.11;73.47;102250.03;5050177;28;20108;-75
2023/10/05 10:27:15;;;;;;;8.40;3.63;;;;;;;17.02;73.06;102240.38;5048942;28;20029;-75
2023/10/05 10:29:50;;;;;;;9.05;3.25;;;;;;;17.24;72.60;102235.59;5047064;28;20033;-75
2023/10/05 10:32:19;;;;;;;;;;;;;;;17.00;73.26;102239.75;5051515;28;20028;-75
2023/10/05 10:34:55;;;;;;;8.48;2.90;;;;;;;17.06;74.31;102238.94;5047200;28;19967;-74
2023/10/05 10:37:48;;;;;;;8.52;3.20;;;;;;;16.69;73.95;102232.94;5045545;28;20028;-75
2023/10/05 10:40:47;;;;;;;10.77;3.50;;;;;;;17.02;73.60;102239.56;5031213;28;20033;-74
2023/10/05 10:45:29;;;;;;;9.48;3.50;;;;;;;17.00;74.19;102239.75;5030813;28;20380;-74
2023/10/05 10:47:58;;;;;;;9.20;3.00;;;;;;;17.07;74.49;102239.75;5046430;28;20432;-74
2023/10/05 10:50:29;;;;;;;8.43;3.67;;;;;;;17.27;73.38;102243.34;5050305;28;20025;-75
2023/10/05 10:52:55;;;;;;;7.63;2.90;;;;;;;17.51;72.09;102237.50;5051844;28;20530;-75
2023/10/05 10:55:21;;;;;;;14.18;3.05;;;;;;;17.85;71.43;102241.03;5051247;28;20025;-75
2023/10/05 10:57:53;;;;;;;8.20;3.30;;;;;;;17.88;70.94;102248.78;5046837;28;20047;-75
2023/10/05 11:00:54;;;;;;;9.05;3.03;;;;;;;17.75;70.58;102240.63;5050709;28;20043;-74
2023/10/05 11:03:24;;;;;;;11.43;2.97;;;;;;;17.90;70.44;102237.69;5030255;28;20045;-75
2023/10/05 11:05:54;;;;;;;9.32;2.80;;;;;;;17.60;72.06;102236.25;5035052;28;20036;-74
2023/10/05 11:08:22;;;;;;;8.93;3.00;;;;;;;17.65;71.37;102236.44;5052692;28;20045;-75
2023/10/05 11:11:15;;;;;;;11.43;3.42;;;;;;;18.13;70.36;102246.25;5059621;28;20033;-74
2023/10/05 11:13:43;;;;;;;10.43;2.90;;;;;;;18.10;69.73;102237.66;5050492;28;20473;-76
2023/10/05 11:16:09;;;;;;;6.68;2.50;;;;;;;17.88;70.88;102251.50;5048944;28;20385;-75
2023/10/05 11:18:35;;;;;;;6.60;2.90;;;;;;;17.95;70.09;102235.16;5057138;28;20041;-76
2023/10/05 11:21:12;;;;;;;11.00;3.00;;;;;;;17.94;70.42;102234.31;5052506;28;20039;-75
2023/10/05 11:23:56;;;;;;;8.27;2.80;;;;;;;18.33;70.17;102238.03;5053723;28;20025;-75
2023/10/05 11:26:33;;;;;;;6.18;2.50;;;;;;;19.37;67.59;102233.47;5053794;28;20190;-76
2023/10/05 11:29:07;;;;;;;6.85;2.78;;;;;;;20.23;63.63;102244.63;5053453;28;20457;-76
2023/10/05 11:31:36;;;;;;;7.60;2.78;;;;;;;19.82;63.20;102236.00;5051446;28;20025;-75
2023/10/05 11:34:09;;;;;;;5.72;2.42;;;;;;;19.39;64.68;102242.28;5051095;28;20045;-75
2023/10/05 11:36:39;;;;;;;6.65;2.78;;;;;;;19.06;65.06;102238.72;5052218;28;20110;-76
2023/10/05 11:39:21;;;;;;;8.18;2.85;;;;;;;18.64;65.42;102233.69;5053424;28;20025;-76
2023/10/05 11:41:47;;;;;;;11.98;2.92;;;;;;;18.38;67.43;102231.94;5078399;28;20024;-75
2023/10/05 11:44:20;;;;;;;9.35;2.70;;;;;;;18.43;68.06;102232.13;5057304;28;20116;-76
2023/10/05 11:46:46;;;;;;;8.43;2.90;;;;;;;18.52;68.35;102238.16;5051738;28;20461;-75
2023/10/05 11:49:13;;;;;;;7.53;2.67;;;;;;;19.03;66.54;102232.88;5053680;28;20059;-77
2023/10/05 11:51:42;;;;;;;8.55;3.08;;;;;;;18.87;65.87;102232.31;5055360;28;20441;-77